sensor_id;sensor_type;location;lat;lon;timestamp;P1;durP1;ratioP1;P2;durP2;ratioP2
30335;SDS011;17142;47.990;7.846;2023-01-24T07:18:30;15.77;;;9.37;;
30335;SDS011;17142;47.990;7.846;2023-01-24T07:20:56;13.97;;;9.97;;
30335;SDS011;17142;47.990;7.846;2023-01-24T07:23:23;15.90;;;8.93;;
30335;SDS011;17142;47.990;7.846;2023-01-24T07:25:53;16.87;;;9.93;;
30335;SDS011;17142;47.990;7.846;2023-01-24T07:28:20;16.87;;;11.33;;
30335;SDS011;17142;47.990;7.846;2023-01-24T07:30:45;16.70;;;10.80;;
30335;SDS011;17142;47.990;7.846;2023-01-24T07:33:15;13.50;;;8.90;;
30335;SDS011;17142;47.990;7.846;2023-01-24T07:35:41;18.53;;;10.87;;
30335;SDS011;17142;47.990;7.846;2023-01-24T07:38:09;16.93;;;9.73;;
30335;SDS011;17142;47.990;7.846;2023-01-24T07:40:36;15.30;;;9.70;;
30335;SDS011;17142;47.990;7.846;2023-01-24T07:43:03;14.23;;;9.47;;
30335;SDS011;17142;47.990;7.846;2023-01-24T07:45:30;16.40;;;8.97;;
30335;SDS011;17142;47.990;7.846;2023-01-24T07:47:57;14.87;;;10.07;;
30335;SDS011;17142;47.990;7.846;2023-01-24T07:50:23;18.83;;;9.13;;
30335;SDS011;17142;47.990;7.846;2023-01-24T07:52:50;17.83;;;10.07;;
30335;SDS011;17142;47.990;7.846;2023-01-24T07:55:20;19.03;;;9.70;;
30335;SDS011;17142;47.990;7.846;2023-01-24T07:57:46;14.93;;;9.50;;
30335;SDS011;17142;47.990;7.846;2023-01-24T08:00:12;14.80;;;10.53;;
30335;SDS011;17142;47.990;7.846;2023-01-24T08:02:39;17.20;;;10.07;;
30335;SDS011;17142;47.990;7.846;2023-01-24T08:05:07;13.63;;;9.10;;
30335;SDS011;17142;47.990;7.846;2023-01-24T08:07:33;14.50;;;9.37;;
30335;SDS011;17142;47.990;7.846;2023-01-24T08:09:59;13.40;;;8.20;;
30335;SDS011;17142;47.990;7.846;2023-01-24T08:12:28;15.33;;;9.00;;
30335;SDS011;17142;47.990;7.846;2023-01-24T08:14:54;16.73;;;9.07;;
30335;SDS011;17142;47.990;7.846;2023-01-24T08:17:19;11.33;;;8.73;;
30335;SDS011;17142;47.990;7.846;2023-01-24T08:19:45;13.53;;;9.17;;
30335;SDS011;17142;47.990;7.846;2023-01-24T08:22:11;15.13;;;10.13;;
30335;SDS011;17142;47.990;7.846;2023-01-24T08:24:36;14.50;;;9.30;;
30335;SDS011;17142;47.990;7.846;2023-01-24T08:27:02;14.00;;;8.63;;
30335;SDS011;17142;47.990;7.846;2023-01-24T08:29:28;13.13;;;8.67;;
30335;SDS011;17142;47.990;7.846;2023-01-24T08:31:54;13.83;;;7.93;;
30335;SDS011;17142;47.990;7.846;2023-01-24T08:34:22;13.73;;;8.60;;
30335;SDS011;17142;47.990;7.846;2023-01-24T08:36:48;15.17;;;9.37;;
30335;SDS011;17142;47.990;7.846;2023-01-24T08:39:13;16.67;;;10.80;;
30335;SDS011;17142;47.990;7.846;2023-01-24T08:41:41;13.97;;;8.80;;
30335;SDS011;17142;47.990;7.846;2023-01-24T08:44:11;17.50;;;9.53;;
30335;SDS011;17142;47.990;7.846;2023-01-24T08:46:38;14.53;;;8.93;;
30335;SDS011;17142;47.990;7.846;2023-01-24T08:49:04;26.00;;;10.47;;
30335;SDS011;17142;47.990;7.846;2023-01-24T08:51:30;15.23;;;9.90;;
30335;SDS011;17142;47.990;7.846;2023-01-24T08:53:56;13.40;;;9.60;;
30335;SDS011;17142;47.990;7.846;2023-01-24T08:56:21;12.60;;;7.70;;
30335;SDS011;17142;47.990;7.846;2023-01-24T08:58:47;15.50;;;9.37;;
30335;SDS011;17142;47.990;7.846;2023-01-24T09:01:13;14.57;;;10.13;;
30335;SDS011;17142;47.990;7.846;2023-01-24T09:03:39;17.80;;;11.10;;
30335;SDS011;17142;47.990;7.846;2023-01-24T09:06:05;14.93;;;8.20;;
30335;SDS011;17142;47.990;7.846;2023-01-24T09:08:31;16.10;;;10.27;;
30335;SDS011;17142;47.990;7.846;2023-01-24T09:10:57;16.33;;;10.00;;
30335;SDS011;17142;47.990;7.846;2023-01-24T09:13:23;14.00;;;8.93;;
30335;SDS011;17142;47.990;7.846;2023-01-24T09:15:49;16.33;;;9.53;;
30335;SDS011;17142;47.990;7.846;2023-01-24T09:18:15;15.80;;;8.87;;
30335;SDS011;17142;47.990;7.846;2023-01-24T09:20:43;16.80;;;9.53;;
30335;SDS011;17142;47.990;7.846;2023-01-24T09:23:13;17.27;;;9.17;;
30335;SDS011;17142;47.990;7.846;2023-01-24T09:25:39;16.70;;;9.07;;
30335;SDS011;17142;47.990;7.846;2023-01-24T09:28:06;14.23;;;9.03;;
30335;SDS011;17142;47.990;7.846;2023-01-24T09:30:34;15.63;;;9.07;;
30335;SDS011;17142;47.990;7.846;2023-01-24T09:33:03;14.90;;;9.10;;
30335;SDS011;17142;47.990;7.846;2023-01-24T09:35:32;15.30;;;9.37;;
30335;SDS011;17142;47.990;7.846;2023-01-24T09:37:57;13.73;;;9.70;;
30335;SDS011;17142;47.990;7.846;2023-01-24T09:40:24;12.20;;;8.00;;
30335;SDS011;17142;47.990;7.846;2023-01-24T09:48:32;17.53;;;9.03;;
30335;SDS011;17142;47.990;7.846;2023-01-24T09:50:59;12.33;;;8.33;;
30335;SDS011;17142;47.990;7.846;2023-01-24T09:53:31;12.47;;;8.73;;
30335;SDS011;17142;47.990;7.846;2023-01-24T09:56:05;11.33;;;7.33;;
30335;SDS011;17142;47.990;7.846;2023-01-24T09:58:39;15.67;;;7.77;;
30335;SDS011;17142;47.990;7.846;2023-01-24T10:01:14;10.80;;;7.33;;
30335;SDS011;17142;47.990;7.846;2023-01-24T10:03:40;13.93;;;8.43;;
30335;SDS011;17142;47.990;7.846;2023-01-24T10:08:45;9.77;;;6.80;;
30335;SDS011;17142;47.990;7.846;2023-01-24T10:20:27;8.20;;;5.27;;
30335;SDS011;17142;47.990;7.846;2023-01-24T10:28:20;10.80;;;6.03;;
30335;SDS011;17142;47.990;7.846;2023-01-24T10:31:58;5.90;;;4.50;;
30335;SDS011;17142;47.990;7.846;2023-01-24T10:39:18;6.90;;;4.17;;
30335;SDS011;17142;47.990;7.846;2023-01-24T10:41:43;5.47;;;4.80;;
30335;SDS011;17142;47.990;7.846;2023-01-24T10:44:15;6.50;;;4.07;;
30335;SDS011;17142;47.990;7.846;2023-01-24T10:46:57;10.07;;;4.70;;
30335;SDS011;17142;47.990;7.846;2023-01-24T10:49:31;5.07;;;4.17;;
30335;SDS011;17142;47.990;7.846;2023-01-24T10:52:15;7.57;;;4.33;;
30335;SDS011;17142;47.990;7.846;2023-01-24T10:57:17;5.63;;;3.73;;
30335;SDS011;17142;47.990;7.846;2023-01-24T11:00:12;8.07;;;4.50;;
30335;SDS011;17142;47.990;7.846;2023-01-24T11:03:16;9.80;;;4.10;;
30335;SDS011;17142;47.990;7.846;2023-01-24T11:05:46;5.10;;;3.90;;
30335;SDS011;17142;47.990;7.846;2023-01-24T11:08:18;4.73;;;3.97;;
30335;SDS011;17142;47.990;7.846;2023-01-24T11:10:55;5.57;;;3.40;;
30335;SDS011;17142;47.990;7.846;2023-01-24T11:13:36;5.30;;;4.10;;
30335;SDS011;17142;47.990;7.846;2023-01-24T11:16:07;5.73;;;4.00;;
30335;SDS011;17142;47.990;7.846;2023-01-24T11:21:28;5.47;;;3.20;;
30335;SDS011;17142;47.990;7.846;2023-01-24T11:26:32;9.67;;;4.10;;
30335;SDS011;17142;47.990;7.846;2023-01-24T11:29:18;5.70;;;4.00;;
30335;SDS011;17142;47.990;7.846;2023-01-24T11:31:44;5.20;;;3.07;;
30335;SDS011;17142;47.990;7.846;2023-01-24T11:34:48;7.13;;;3.83;;
30335;SDS011;17142;47.990;7.846;2023-01-24T11:37:41;5.90;;;4.27;;
30335;SDS011;17142;47.990;7.846;2023-01-24T11:40:32;4.33;;;3.27;;
30335;SDS011;17142;47.990;7.846;2023-01-24T11:43:07;6.97;;;3.93;;
30335;SDS011;17142;47.990;7.846;2023-01-24T11:45:42;5.37;;;3.70;;
30335;SDS011;17142;47.990;7.846;2023-01-24T11:48:29;5.23;;;3.40;;
30335;SDS011;17142;47.990;7.846;2023-01-24T11:59:00;7.63;;;4.00;;
30335;SDS011;17142;47.990;7.846;2023-01-24T12:12:22;4.37;;;3.77;;
30335;SDS011;17142;47.990;7.846;2023-01-24T12:23:23;5.33;;;3.33;;
30335;SDS011;17142;47.990;7.846;2023-01-24T12:26:18;4.70;;;3.60;;
30335;SDS011;17142;47.990;7.846;2023-01-24T12:28:56;8.27;;;3.83;;
30335;SDS011;17142;47.990;7.846;2023-01-24T12:31:42;5.17;;;3.80;;
30335;SDS011;17142;47.990;7.846;2023-01-24T12:34:27;5.40;;;3.73;;
30335;SDS011;17142;47.990;7.846;2023-01-24T12:42:33;7.20;;;4.00;;
30335;SDS011;17142;47.990;7.846;2023-01-24T12:48:36;6.07;;;3.63;;
30335;SDS011;17142;47.990;7.846;2023-01-24T12:51:20;4.03;;;3.63;;
30335;SDS011;17142;47.990;7.846;2023-01-24T12:56:57;5.90;;;3.90;;
30335;SDS011;17142;47.990;7.846;2023-01-24T12:59:30;4.50;;;3.30;;
30335;SDS011;17142;47.990;7.846;2023-01-24T13:13:18;8.52;;;4.70;;
30335;SDS011;17142;47.990;7.846;2023-01-24T13:16:09;10.30;;;4.30;;
30335;SDS011;17142;47.990;7.846;2023-01-24T13:21:24;5.23;;;3.13;;
30335;SDS011;17142;47.990;7.846;2023-01-24T13:24:16;5.40;;;3.70;;
30335;SDS011;17142;47.990;7.846;2023-01-24T13:29:51;4.40;;;4.00;;
30335;SDS011;17142;47.990;7.846;2023-01-24T13:32:38;5.40;;;3.60;;
30335;SDS011;17142;47.990;7.846;2023-01-24T13:35:21;6.90;;;3.60;;
30335;SDS011;17142;47.990;7.846;2023-01-24T13:37:52;4.20;;;3.63;;
30335;SDS011;17142;47.990;7.846;2023-01-24T13:40:29;5.40;;;4.00;;
30335;SDS011;17142;47.990;7.846;2023-01-24T13:43:00;4.03;;;3.67;;
30335;SDS011;17142;47.990;7.846;2023-01-24T13:45:46;4.40;;;3.90;;
30335;SDS011;17142;47.990;7.846;2023-01-24T13:48:42;5.27;;;3.83;;
30335;SDS011;17142;47.990;7.846;2023-01-24T13:56:26;3.90;;;3.40;;
30335;SDS011;17142;47.990;7.846;2023-01-24T13:58:54;3.70;;;3.00;;
30335;SDS011;17142;47.990;7.846;2023-01-24T14:01:20;5.70;;;3.63;;
30335;SDS011;17142;47.990;7.846;2023-01-24T14:04:00;7.43;;;3.87;;
30335;SDS011;17142;47.990;7.846;2023-01-24T14:06:39;4.93;;;3.47;;
30335;SDS011;17142;47.990;7.846;2023-01-24T14:09:16;6.20;;;3.70;;
30335;SDS011;17142;47.990;7.846;2023-01-24T14:11:58;4.47;;;3.27;;
30335;SDS011;17142;47.990;7.846;2023-01-24T14:14:37;5.40;;;3.57;;
30335;SDS011;17142;47.990;7.846;2023-01-24T14:17:28;5.47;;;3.40;;
30335;SDS011;17142;47.990;7.846;2023-01-24T14:23:16;4.93;;;3.90;;
30335;SDS011;17142;47.990;7.846;2023-01-24T14:25:49;8.30;;;3.90;;
30335;SDS011;17142;47.990;7.846;2023-01-24T14:28:25;7.67;;;4.10;;
30335;SDS011;17142;47.990;7.846;2023-01-24T14:31:02;5.63;;;3.97;;
30335;SDS011;17142;47.990;7.846;2023-01-24T14:33:46;6.97;;;4.93;;
30335;SDS011;17142;47.990;7.846;2023-01-24T14:36:35;4.97;;;3.67;;
30335;SDS011;17142;47.990;7.846;2023-01-24T14:41:46;6.83;;;4.00;;
30335;SDS011;17142;47.990;7.846;2023-01-24T14:44:28;5.93;;;4.10;;
30335;SDS011;17142;47.990;7.846;2023-01-24T14:49:27;10.70;;;4.20;;
30335;SDS011;17142;47.990;7.846;2023-01-24T14:51:55;4.73;;;3.73;;
30335;SDS011;17142;47.990;7.846;2023-01-24T14:54:21;6.37;;;4.07;;
30335;SDS011;17142;47.990;7.846;2023-01-24T14:56:48;6.03;;;5.00;;
30335;SDS011;17142;47.990;7.846;2023-01-24T14:59:15;6.80;;;4.97;;
30335;SDS011;17142;47.990;7.846;2023-01-24T15:01:42;5.80;;;4.70;;
30335;SDS011;17142;47.990;7.846;2023-01-24T15:04:24;7.97;;;4.63;;
30335;SDS011;17142;47.990;7.846;2023-01-24T15:07:11;6.13;;;4.40;;
30335;SDS011;17142;47.990;7.846;2023-01-24T15:09:41;9.03;;;5.13;;
30335;SDS011;17142;47.990;7.846;2023-01-24T15:12:18;6.70;;;4.43;;
30335;SDS011;17142;47.990;7.846;2023-01-24T15:14:56;10.60;;;6.07;;
30335;SDS011;17142;47.990;7.846;2023-01-24T15:17:25;9.33;;;5.10;;
30335;SDS011;17142;47.990;7.846;2023-01-24T15:19:57;8.67;;;6.00;;
30335;SDS011;17142;47.990;7.846;2023-01-24T15:22:36;7.33;;;5.67;;
30335;SDS011;17142;47.990;7.846;2023-01-24T15:25:14;9.80;;;5.33;;
30335;SDS011;17142;47.990;7.846;2023-01-24T15:27:52;9.97;;;5.97;;
30335;SDS011;17142;47.990;7.846;2023-01-24T15:30:24;6.30;;;5.53;;
30335;SDS011;17142;47.990;7.846;2023-01-24T15:35:33;9.97;;;4.93;;
30335;SDS011;17142;47.990;7.846;2023-01-24T15:40:37;7.77;;;5.00;;
30335;SDS011;17142;47.990;7.846;2023-01-24T15:43:38;7.13;;;5.23;;
30335;SDS011;17142;47.990;7.846;2023-01-24T15:46:35;7.47;;;5.60;;
30335;SDS011;17142;47.990;7.846;2023-01-24T15:54:43;9.37;;;5.40;;
30335;SDS011;17142;47.990;7.846;2023-01-24T15:57:33;6.67;;;5.87;;
30335;SDS011;17142;47.990;7.846;2023-01-24T16:00:21;8.83;;;5.33;;
30335;SDS011;17142;47.990;7.846;2023-01-24T16:02:49;6.60;;;5.10;;
30335;SDS011;17142;47.990;7.846;2023-01-24T16:05:16;7.77;;;4.90;;
30335;SDS011;17142;47.990;7.846;2023-01-24T16:07:43;6.80;;;4.60;;
30335;SDS011;17142;47.990;7.846;2023-01-24T16:10:12;7.97;;;5.50;;
30335;SDS011;17142;47.990;7.846;2023-01-24T16:12:41;7.93;;;6.23;;
30335;SDS011;17142;47.990;7.846;2023-01-24T16:15:14;7.87;;;5.67;;
30335;SDS011;17142;47.990;7.846;2023-01-24T16:17:41;7.70;;;5.30;;
30335;SDS011;17142;47.990;7.846;2023-01-24T16:22:46;4.77;;;4.03;;
30335;SDS011;17142;47.990;7.846;2023-01-24T16:25:13;6.80;;;4.90;;
30335;SDS011;17142;47.990;7.846;2023-01-24T16:27:39;6.60;;;5.40;;
30335;SDS011;17142;47.990;7.846;2023-01-24T16:30:10;7.70;;;5.37;;
30335;SDS011;17142;47.990;7.846;2023-01-24T16:32:48;9.10;;;5.53;;
30335;SDS011;17142;47.990;7.846;2023-01-24T16:35:15;6.43;;;5.43;;
30335;SDS011;17142;47.990;7.846;2023-01-24T16:37:41;7.40;;;5.40;;
30335;SDS011;17142;47.990;7.846;2023-01-24T16:40:10;7.87;;;5.67;;
30335;SDS011;17142;47.990;7.846;2023-01-24T16:42:41;7.70;;;5.30;;
30335;SDS011;17142;47.990;7.846;2023-01-24T16:45:11;6.77;;;5.33;;
30335;SDS011;17142;47.990;7.846;2023-01-24T16:47:41;8.30;;;5.67;;
30335;SDS011;17142;47.990;7.846;2023-01-24T16:50:07;8.17;;;5.33;;
30335;SDS011;17142;47.990;7.846;2023-01-24T16:52:37;7.17;;;5.70;;
30335;SDS011;17142;47.990;7.846;2023-01-24T16:55:03;5.63;;;5.00;;
30335;SDS011;17142;47.990;7.846;2023-01-24T16:57:30;8.77;;;5.47;;
30335;SDS011;17142;47.990;7.846;2023-01-24T16:59:58;9.57;;;6.70;;
30335;SDS011;17142;47.990;7.846;2023-01-24T17:02:26;8.00;;;6.03;;
30335;SDS011;17142;47.990;7.846;2023-01-24T17:04:51;10.00;;;6.00;;
30335;SDS011;17142;47.990;7.846;2023-01-24T17:07:22;11.57;;;7.37;;
30335;SDS011;17142;47.990;7.846;2023-01-24T17:09:50;11.00;;;6.00;;
30335;SDS011;17142;47.990;7.846;2023-01-24T17:12:15;6.97;;;6.13;;
30335;SDS011;17142;47.990;7.846;2023-01-24T17:14:41;8.43;;;5.83;;
30335;SDS011;17142;47.990;7.846;2023-01-24T17:17:07;10.03;;;6.73;;
30335;SDS011;17142;47.990;7.846;2023-01-24T17:19:33;8.40;;;6.00;;
30335;SDS011;17142;47.990;7.846;2023-01-24T17:22:01;10.60;;;6.43;;
30335;SDS011;17142;47.990;7.846;2023-01-24T17:24:30;5.73;;;5.00;;
30335;SDS011;17142;47.990;7.846;2023-01-24T17:26:58;9.40;;;5.30;;
30335;SDS011;17142;47.990;7.846;2023-01-24T17:29:23;11.90;;;6.73;;
30335;SDS011;17142;47.990;7.846;2023-01-24T17:31:52;7.60;;;5.83;;
30335;SDS011;17142;47.990;7.846;2023-01-24T17:34:23;11.20;;;6.10;;
30335;SDS011;17142;47.990;7.846;2023-01-24T17:36:49;8.53;;;5.90;;
30335;SDS011;17142;47.990;7.846;2023-01-24T17:39:15;8.47;;;6.40;;
30335;SDS011;17142;47.990;7.846;2023-01-24T17:41:40;6.73;;;4.80;;
30335;SDS011;17142;47.990;7.846;2023-01-24T17:44:06;7.53;;;5.80;;
30335;SDS011;17142;47.990;7.846;2023-01-24T17:46:32;7.10;;;5.93;;
30335;SDS011;17142;47.990;7.846;2023-01-24T17:49:00;7.90;;;5.83;;
30335;SDS011;17142;47.990;7.846;2023-01-24T17:51:26;7.13;;;5.23;;
30335;SDS011;17142;47.990;7.846;2023-01-24T17:53:51;8.60;;;5.80;;
30335;SDS011;17142;47.990;7.846;2023-01-24T17:56:17;8.90;;;6.10;;
30335;SDS011;17142;47.990;7.846;2023-01-24T17:58:43;11.57;;;6.63;;
30335;SDS011;17142;47.990;7.846;2023-01-24T18:01:09;10.80;;;7.47;;
30335;SDS011;17142;47.990;7.846;2023-01-24T18:03:37;9.37;;;6.90;;
30335;SDS011;17142;47.990;7.846;2023-01-24T18:06:04;11.07;;;6.93;;
30335;SDS011;17142;47.990;7.846;2023-01-24T18:08:30;12.50;;;7.53;;
30335;SDS011;17142;47.990;7.846;2023-01-24T18:11:04;10.47;;;6.00;;
30335;SDS011;17142;47.990;7.846;2023-01-24T18:13:34;9.50;;;6.53;;
30335;SDS011;17142;47.990;7.846;2023-01-24T18:16:01;10.90;;;7.20;;
30335;SDS011;17142;47.990;7.846;2023-01-24T18:18:29;12.40;;;8.00;;
30335;SDS011;17142;47.990;7.846;2023-01-24T18:20:57;12.40;;;7.73;;
30335;SDS011;17142;47.990;7.846;2023-01-24T18:23:22;10.47;;;7.63;;
30335;SDS011;17142;47.990;7.846;2023-01-24T18:25:48;11.40;;;8.30;;
30335;SDS011;17142;47.990;7.846;2023-01-24T18:28:16;12.30;;;7.60;;
30335;SDS011;17142;47.990;7.846;2023-01-24T18:30:44;9.43;;;6.77;;
30335;SDS011;17142;47.990;7.846;2023-01-24T18:33:12;7.90;;;6.47;;
30335;SDS011;17142;47.990;7.846;2023-01-24T18:35:41;11.60;;;7.27;;
30335;SDS011;17142;47.990;7.846;2023-01-24T18:38:06;11.20;;;6.83;;
30335;SDS011;17142;47.990;7.846;2023-01-24T18:40:32;10.20;;;6.90;;
30335;SDS011;17142;47.990;7.846;2023-01-24T18:42:57;9.73;;;6.07;;
30335;SDS011;17142;47.990;7.846;2023-01-24T18:45:23;8.57;;;7.20;;
30335;SDS011;17142;47.990;7.846;2023-01-24T18:47:49;10.57;;;6.97;;
30335;SDS011;17142;47.990;7.846;2023-01-24T18:50:14;8.83;;;6.67;;
30335;SDS011;17142;47.990;7.846;2023-01-24T18:52:40;10.23;;;7.60;;
30335;SDS011;17142;47.990;7.846;2023-01-24T18:55:06;9.97;;;7.40;;
30335;SDS011;17142;47.990;7.846;2023-01-24T18:57:36;9.87;;;7.20;;
30335;SDS011;17142;47.990;7.846;2023-01-24T19:00:04;13.10;;;8.40;;
30335;SDS011;17142;47.990;7.846;2023-01-24T19:02:33;14.37;;;7.50;;
30335;SDS011;17142;47.990;7.846;2023-01-24T19:05:01;14.80;;;8.30;;
30335;SDS011;17142;47.990;7.846;2023-01-24T19:07:33;12.87;;;8.43;;
30335;SDS011;17142;47.990;7.846;2023-01-24T19:09:59;17.10;;;10.30;;
30335;SDS011;17142;47.990;7.846;2023-01-24T19:12:26;18.73;;;10.00;;
30335;SDS011;17142;47.990;7.846;2023-01-24T19:14:52;14.90;;;10.40;;
30335;SDS011;17142;47.990;7.846;2023-01-24T19:17:17;17.23;;;10.80;;
30335;SDS011;17142;47.990;7.846;2023-01-24T19:19:43;17.70;;;11.73;;
30335;SDS011;17142;47.990;7.846;2023-01-24T19:22:09;12.60;;;10.03;;
30335;SDS011;17142;47.990;7.846;2023-01-24T19:24:35;19.50;;;11.23;;
30335;SDS011;17142;47.990;7.846;2023-01-24T19:27:01;17.20;;;10.03;;
30335;SDS011;17142;47.990;7.846;2023-01-24T19:29:35;16.03;;;9.60;;
30335;SDS011;17142;47.990;7.846;2023-01-24T19:32:03;17.37;;;10.07;;
30335;SDS011;17142;47.990;7.846;2023-01-24T19:34:28;15.20;;;9.07;;
30335;SDS011;17142;47.990;7.846;2023-01-24T19:36:54;14.33;;;9.70;;
30335;SDS011;17142;47.990;7.846;2023-01-24T19:39:22;15.73;;;10.53;;
30335;SDS011;17142;47.990;7.846;2023-01-24T19:41:50;16.67;;;9.83;;
30335;SDS011;17142;47.990;7.846;2023-01-24T19:44:16;18.00;;;11.50;;
30335;SDS011;17142;47.990;7.846;2023-01-24T19:46:45;18.37;;;11.50;;
30335;SDS011;17142;47.990;7.846;2023-01-24T19:49:12;21.53;;;13.17;;
30335;SDS011;17142;47.990;7.846;2023-01-24T19:51:40;22.97;;;13.63;;
30335;SDS011;17142;47.990;7.846;2023-01-24T19:54:05;16.10;;;9.80;;
30335;SDS011;17142;47.990;7.846;2023-01-24T19:56:34;15.50;;;10.20;;
30335;SDS011;17142;47.990;7.846;2023-01-24T19:59:00;18.67;;;11.50;;
30335;SDS011;17142;47.990;7.846;2023-01-24T20:01:25;17.37;;;11.77;;
30335;SDS011;17142;47.990;7.846;2023-01-24T20:03:53;20.80;;;11.80;;
30335;SDS011;17142;47.990;7.846;2023-01-24T20:06:21;15.50;;;10.70;;
30335;SDS011;17142;47.990;7.846;2023-01-24T20:08:49;15.63;;;10.20;;
30335;SDS011;17142;47.990;7.846;2023-01-24T20:11:16;21.30;;;12.00;;
30335;SDS011;17142;47.990;7.846;2023-01-24T20:13:42;17.20;;;12.90;;
30335;SDS011;17142;47.990;7.846;2023-01-24T20:18:41;16.63;;;12.30;;
30335;SDS011;17142;47.990;7.846;2023-01-24T20:21:09;19.10;;;11.60;;
30335;SDS011;17142;47.990;7.846;2023-01-24T20:23:35;16.03;;;11.43;;
30335;SDS011;17142;47.990;7.846;2023-01-24T20:26:04;16.80;;;12.20;;
30335;SDS011;17142;47.990;7.846;2023-01-24T20:28:31;22.90;;;13.57;;
30335;SDS011;17142;47.990;7.846;2023-01-24T20:31:03;18.73;;;12.13;;
30335;SDS011;17142;47.990;7.846;2023-01-24T20:33:30;15.67;;;10.80;;
30335;SDS011;17142;47.990;7.846;2023-01-24T20:38:30;19.20;;;12.03;;
30335;SDS011;17142;47.990;7.846;2023-01-24T20:40:59;19.57;;;13.07;;
30335;SDS011;17142;47.990;7.846;2023-01-24T20:43:27;18.90;;;11.10;;
30335;SDS011;17142;47.990;7.846;2023-01-24T20:45:59;19.57;;;11.43;;
30335;SDS011;17142;47.990;7.846;2023-01-24T20:48:26;23.17;;;13.70;;
30335;SDS011;17142;47.990;7.846;2023-01-24T20:50:57;16.60;;;12.13;;
30335;SDS011;17142;47.990;7.846;2023-01-24T20:53:25;18.80;;;12.13;;
30335;SDS011;17142;47.990;7.846;2023-01-24T20:55:52;19.30;;;11.67;;
30335;SDS011;17142;47.990;7.846;2023-01-24T20:58:24;15.90;;;11.37;;
30335;SDS011;17142;47.990;7.846;2023-01-24T21:00:51;19.40;;;12.20;;
30335;SDS011;17142;47.990;7.846;2023-01-24T21:03:17;23.63;;;12.40;;
30335;SDS011;17142;47.990;7.846;2023-01-24T21:05:43;23.07;;;12.27;;
30335;SDS011;17142;47.990;7.846;2023-01-24T21:08:09;19.67;;;12.93;;
30335;SDS011;17142;47.990;7.846;2023-01-24T21:10:35;19.47;;;12.57;;
30335;SDS011;17142;47.990;7.846;2023-01-24T21:13:00;19.73;;;13.00;;
30335;SDS011;17142;47.990;7.846;2023-01-24T21:15:26;18.63;;;11.70;;
30335;SDS011;17142;47.990;7.846;2023-01-24T21:17:51;22.17;;;12.73;;
30335;SDS011;17142;47.990;7.846;2023-01-24T21:20:17;21.03;;;12.47;;
30335;SDS011;17142;47.990;7.846;2023-01-24T21:22:43;19.63;;;12.10;;
30335;SDS011;17142;47.990;7.846;2023-01-24T21:25:09;18.80;;;11.93;;
30335;SDS011;17142;47.990;7.846;2023-01-24T21:27:35;20.90;;;11.83;;
30335;SDS011;17142;47.990;7.846;2023-01-24T21:30:01;21.43;;;13.50;;
30335;SDS011;17142;47.990;7.846;2023-01-24T21:32:26;24.00;;;13.47;;
30335;SDS011;17142;47.990;7.846;2023-01-24T21:34:53;22.37;;;12.67;;
30335;SDS011;17142;47.990;7.846;2023-01-24T21:37:19;20.17;;;12.07;;
30335;SDS011;17142;47.990;7.846;2023-01-24T21:39:44;17.60;;;10.97;;
30335;SDS011;17142;47.990;7.846;2023-01-24T21:42:11;18.63;;;12.03;;
30335;SDS011;17142;47.990;7.846;2023-01-24T21:44:37;16.43;;;9.80;;
30335;SDS011;17142;47.990;7.846;2023-01-24T21:47:05;17.63;;;12.37;;
30335;SDS011;17142;47.990;7.846;2023-01-24T21:49:33;21.97;;;13.70;;
30335;SDS011;17142;47.990;7.846;2023-01-24T21:51:59;29.40;;;16.73;;
30335;SDS011;17142;47.990;7.846;2023-01-24T21:54:29;31.03;;;16.00;;
30335;SDS011;17142;47.990;7.846;2023-01-24T21:57:01;33.07;;;17.27;;
30335;SDS011;17142;47.990;7.846;2023-01-24T21:59:47;33.10;;;19.23;;
30335;SDS011;17142;47.990;7.846;2023-01-24T22:04:41;24.13;;;14.43;;
30335;SDS011;17142;47.990;7.846;2023-01-24T22:07:10;27.33;;;16.47;;
30335;SDS011;17142;47.990;7.846;2023-01-24T22:09:37;24.07;;;13.60;;
30335;SDS011;17142;47.990;7.846;2023-01-24T22:12:03;21.00;;;13.90;;
30335;SDS011;17142;47.990;7.846;2023-01-24T22:14:30;18.73;;;12.70;;
30335;SDS011;17142;47.990;7.846;2023-01-24T22:16:57;24.50;;;13.17;;
30335;SDS011;17142;47.990;7.846;2023-01-24T22:19:28;16.80;;;13.53;;
30335;SDS011;17142;47.990;7.846;2023-01-24T22:27:34;21.17;;;13.83;;
30335;SDS011;17142;47.990;7.846;2023-01-24T22:30:00;22.80;;;12.90;;
30335;SDS011;17142;47.990;7.846;2023-01-24T22:32:26;19.70;;;12.27;;
30335;SDS011;17142;47.990;7.846;2023-01-24T22:34:52;23.47;;;13.63;;
30335;SDS011;17142;47.990;7.846;2023-01-24T22:39:51;17.23;;;11.60;;
30335;SDS011;17142;47.990;7.846;2023-01-24T22:42:20;21.80;;;13.30;;
30335;SDS011;17142;47.990;7.846;2023-01-24T22:44:48;20.50;;;13.60;;
30335;SDS011;17142;47.990;7.846;2023-01-24T22:47:17;21.13;;;13.37;;
30335;SDS011;17142;47.990;7.846;2023-01-24T22:49:44;20.60;;;11.40;;
30335;SDS011;17142;47.990;7.846;2023-01-24T22:52:12;20.70;;;11.30;;
30335;SDS011;17142;47.990;7.846;2023-01-24T22:54:40;19.43;;;11.53;;
30335;SDS011;17142;47.990;7.846;2023-01-24T22:57:06;24.50;;;12.23;;
30335;SDS011;17142;47.990;7.846;2023-01-24T22:59:33;24.53;;;13.47;;
30335;SDS011;17142;47.990;7.846;2023-01-24T23:01:59;22.30;;;13.40;;
30335;SDS011;17142;47.990;7.846;2023-01-24T23:04:24;20.33;;;13.33;;
30335;SDS011;17142;47.990;7.846;2023-01-24T23:06:52;24.77;;;14.70;;
30335;SDS011;17142;47.990;7.846;2023-01-24T23:09:18;19.17;;;14.00;;
30335;SDS011;17142;47.990;7.846;2023-01-24T23:11:46;24.23;;;15.50;;
30335;SDS011;17142;47.990;7.846;2023-01-24T23:14:12;23.60;;;12.77;;
30335;SDS011;17142;47.990;7.846;2023-01-24T23:17:01;25.43;;;13.67;;
30335;SDS011;17142;47.990;7.846;2023-01-24T23:19:52;25.00;;;14.40;;
30335;SDS011;17142;47.990;7.846;2023-01-24T23:22:36;22.57;;;13.13;;
30335;SDS011;17142;47.990;7.846;2023-01-24T23:25:03;20.57;;;13.00;;
30335;SDS011;17142;47.990;7.846;2023-01-24T23:27:33;22.13;;;12.83;;
30335;SDS011;17142;47.990;7.846;2023-01-24T23:32:31;25.67;;;16.27;;
30335;SDS011;17142;47.990;7.846;2023-01-24T23:35:01;21.60;;;13.37;;
30335;SDS011;17142;47.990;7.846;2023-01-24T23:37:29;21.57;;;14.47;;
30335;SDS011;17142;47.990;7.846;2023-01-24T23:39:56;22.70;;;13.33;;
30335;SDS011;17142;47.990;7.846;2023-01-24T23:42:22;21.07;;;13.40;;
30335;SDS011;17142;47.990;7.846;2023-01-24T23:44:49;21.47;;;13.00;;
30335;SDS011;17142;47.990;7.846;2023-01-24T23:47:15;18.47;;;11.50;;
30335;SDS011;17142;47.990;7.846;2023-01-24T23:49:41;21.67;;;14.27;;
30335;SDS011;17142;47.990;7.846;2023-01-24T23:52:08;19.57;;;11.73;;
30335;SDS011;17142;47.990;7.846;2023-01-24T23:54:33;19.73;;;12.80;;
30335;SDS011;17142;47.990;7.846;2023-01-24T23:57:01;25.20;;;13.77;;
30335;SDS011;17142;47.990;7.846;2023-01-24T23:59:27;21.83;;;15.07;;
